createdAt,value
2019-05-21T00:01:52.256Z,100.00
2019-05-21T00:04:28.259Z,100.00
2019-05-21T00:06:51.956Z,100.00
2019-05-21T00:09:21.236Z,100.00
2019-05-21T00:11:50.235Z,100.00
2019-05-21T00:14:19.178Z,100.00
2019-05-21T00:16:48.117Z,100.00
2019-05-21T00:19:16.745Z,100.00
2019-05-21T00:21:45.692Z,100.00
2019-05-21T00:24:14.992Z,100.00
2019-05-21T00:26:43.990Z,100.00
2019-05-21T00:29:49.030Z,100.00
2019-05-21T00:32:53.964Z,100.00
2019-05-21T00:35:58.857Z,100.00
2019-05-21T00:39:04.361Z,100.00
2019-05-21T00:41:59.651Z,100.00
2019-05-21T00:44:29.062Z,100.00
2019-05-21T00:46:57.756Z,99.08
2019-05-21T00:49:26.769Z,98.89
2019-05-21T00:52:07.041Z,98.82
2019-05-21T00:54:26.364Z,98.45
2019-05-21T00:56:55.193Z,97.92
2019-05-21T00:59:24.150Z,97.84
2019-05-21T01:01:52.773Z,97.54
2019-05-21T01:04:21.446Z,97.94
2019-05-21T01:06:50.114Z,98.14
2019-05-21T01:09:18.729Z,98.03
2019-05-21T01:11:47.460Z,98.04
2019-05-21T01:14:16.359Z,98.18
2019-05-21T01:16:45.005Z,98.65
2019-05-21T01:19:14.077Z,98.61
2019-05-21T01:21:43.049Z,98.69
2019-05-21T01:24:12.039Z,98.69
2019-05-21T01:26:40.679Z,98.87
2019-05-21T01:29:09.378Z,99.09
2019-05-21T01:31:38.300Z,99.18
2019-05-21T01:34:06.971Z,98.54
2019-05-21T01:36:36.296Z,98.02
2019-05-21T01:39:05.761Z,97.71
2019-05-21T01:41:34.675Z,97.81
2019-05-21T01:44:03.651Z,97.26
2019-05-21T01:46:32.285Z,98.29
2019-05-21T01:49:01.259Z,98.16
2019-05-21T01:51:29.868Z,98.14
2019-05-21T01:53:58.839Z,98.47
2019-05-21T01:56:28.241Z,98.51
2019-05-21T01:58:56.889Z,98.67
2019-05-21T02:01:25.533Z,98.80
2019-05-21T02:03:54.507Z,98.97
2019-05-21T02:06:24.022Z,98.89
2019-05-21T02:08:52.717Z,98.58
2019-05-21T02:11:21.690Z,98.77
2019-05-21T02:13:50.690Z,98.98
2019-05-21T02:16:19.304Z,99.30
2019-05-21T02:18:47.948Z,99.22
2019-05-21T02:21:16.953Z,99.16
2019-05-21T02:23:45.939Z,99.10
2019-05-21T02:26:14.843Z,99.26
2019-05-21T02:28:43.934Z,99.34
2019-05-21T02:31:12.578Z,99.42
2019-05-21T02:33:41.229Z,99.01
2019-05-21T02:36:10.107Z,99.04
2019-05-21T02:38:39.132Z,98.81
2019-05-21T02:41:07.854Z,98.50
2019-05-21T02:43:36.763Z,98.91
2019-05-21T02:46:05.769Z,98.66
2019-05-21T02:48:34.401Z,98.75
2019-05-21T02:51:03.135Z,98.62
2019-05-21T02:53:34.459Z,98.56
2019-05-21T02:56:02.401Z,98.40
2019-05-21T02:58:31.358Z,98.83
2019-05-21T03:01:06.872Z,98.76
2019-05-21T03:03:35.996Z,99.17
2019-05-21T03:06:13.647Z,99.18
2019-05-21T03:08:35.085Z,99.17
2019-05-21T03:11:04.097Z,99.14
2019-05-21T03:13:33.102Z,98.78
2019-05-21T03:16:02.089Z,99.35
2019-05-21T03:18:31.093Z,99.22
2019-05-21T03:21:00.379Z,99.99
2019-05-21T03:23:29.459Z,100.00
2019-05-21T03:25:58.803Z,100.00
2019-05-21T03:28:27.429Z,100.00
2019-05-21T03:30:56.984Z,100.00
2019-05-21T03:33:26.171Z,100.00
2019-05-21T03:35:55.169Z,100.00
2019-05-21T03:38:23.828Z,100.00
2019-05-21T03:40:52.488Z,100.00
2019-05-21T03:43:21.565Z,100.00
2019-05-21T03:45:50.229Z,100.00
2019-05-21T03:48:18.950Z,100.00
2019-05-21T03:50:47.902Z,100.00
2019-05-21T03:53:17.198Z,100.00
2019-05-21T03:55:45.849Z,100.00
2019-05-21T03:58:14.798Z,100.00
2019-05-21T04:00:43.464Z,100.00
2019-05-21T04:03:12.450Z,100.00
2019-05-21T04:05:41.343Z,100.00
2019-05-21T04:08:10.319Z,100.00
2019-05-21T04:10:38.984Z,100.00
2019-05-21T04:13:08.652Z,100.00
2019-05-21T04:15:54.208Z,100.00
2019-05-21T04:18:27.204Z,100.00
2019-05-21T04:20:55.862Z,100.00
2019-05-21T04:23:24.886Z,100.00
2019-05-21T04:25:53.520Z,100.00
2019-05-21T04:28:22.453Z,100.00
2019-05-21T04:30:51.876Z,99.95
2019-05-21T04:33:20.502Z,100.00
2019-05-21T04:35:49.444Z,100.00
2019-05-21T04:38:18.106Z,99.55
2019-05-21T04:40:47.127Z,99.42
2019-05-21T04:43:15.776Z,99.39
2019-05-21T04:45:45.241Z,99.50
2019-05-21T04:48:13.947Z,99.66
2019-05-21T04:50:43.206Z,99.69
2019-05-21T04:53:12.183Z,100.00
2019-05-21T04:55:40.868Z,100.00
2019-05-21T04:58:09.787Z,100.00
2019-05-21T05:00:38.406Z,100.00
2019-05-21T05:03:07.334Z,99.73
2019-05-21T05:05:36.004Z,99.53
2019-05-21T05:08:04.809Z,99.33
2019-05-21T05:10:33.827Z,99.00
2019-05-21T05:13:03.022Z,99.08
2019-05-21T05:15:31.999Z,99.19
2019-05-21T05:18:01.034Z,99.15
2019-05-21T05:20:29.681Z,99.46
2019-05-21T05:22:58.572Z,99.64
2019-05-21T05:25:27.215Z,99.41
2019-05-21T05:27:55.891Z,99.46
2019-05-21T05:30:24.875Z,99.56
2019-05-21T05:32:53.842Z,99.50
2019-05-21T05:35:22.833Z,99.72
2019-05-21T05:37:51.562Z,99.31
2019-05-21T05:40:20.822Z,99.14
2019-05-21T05:42:50.229Z,98.84
2019-05-21T05:45:19.045Z,98.52
2019-05-21T05:47:48.011Z,98.05
2019-05-21T05:50:18.615Z,98.10
2019-05-21T05:52:47.327Z,98.20
2019-05-21T05:55:16.132Z,98.80
2019-05-21T05:57:45.024Z,98.80
2019-05-21T06:00:15.040Z,99.10
2019-05-21T06:02:43.693Z,98.79
2019-05-21T06:05:12.809Z,98.87
2019-05-21T06:07:41.803Z,97.67
2019-05-21T06:10:10.589Z,97.96
2019-05-21T06:12:39.592Z,97.82
2019-05-21T06:15:08.340Z,97.49
2019-05-21T06:17:36.980Z,97.59
2019-05-21T06:20:06.464Z,97.90
2019-05-21T06:22:35.456Z,97.77
2019-05-21T06:25:05.101Z,97.79
2019-05-21T06:27:34.063Z,97.29
2019-05-21T06:30:02.826Z,96.85
2019-05-21T06:32:31.742Z,95.87
2019-05-21T06:35:00.414Z,95.21
2019-05-21T06:37:29.058Z,95.02
2019-05-21T06:39:57.698Z,95.04
2019-05-21T06:42:26.346Z,94.90
2019-05-21T06:44:54.999Z,94.94
2019-05-21T06:47:24.577Z,94.18
2019-05-21T06:49:53.469Z,93.73
2019-05-21T06:52:22.558Z,93.94
2019-05-21T06:54:51.269Z,94.04
2019-05-21T06:57:19.915Z,94.33
2019-05-21T06:59:49.130Z,93.89
2019-05-21T07:02:18.445Z,92.32
2019-05-21T07:04:47.819Z,92.88
2019-05-21T07:07:16.538Z,92.19
2019-05-21T07:09:45.517Z,92.51
2019-05-21T07:12:14.266Z,91.80
2019-05-21T07:14:42.972Z,91.61
2019-05-21T07:17:11.895Z,92.18
2019-05-21T07:19:40.773Z,93.52
2019-05-21T07:22:12.963Z,92.88
2019-05-21T07:24:39.841Z,92.58
2019-05-21T07:27:08.814Z,93.03
2019-05-21T07:29:37.419Z,92.72
2019-05-21T07:32:06.359Z,93.09
2019-05-21T07:34:35.008Z,92.25
2019-05-21T07:37:03.658Z,91.85
2019-05-21T07:39:32.633Z,91.43
2019-05-21T07:42:01.262Z,90.12
2019-05-21T07:44:29.891Z,88.59
2019-05-21T07:46:58.885Z,88.10
2019-05-21T07:49:28.150Z,88.55
2019-05-21T07:51:57.389Z,87.60
2019-05-21T07:54:28.198Z,86.50
2019-05-21T07:56:57.089Z,86.06
2019-05-21T07:59:25.832Z,86.01
2019-05-21T08:01:54.808Z,86.51
2019-05-21T08:04:23.997Z,86.46
2019-05-21T08:06:52.661Z,86.25
2019-05-21T08:09:21.334Z,85.05
2019-05-21T08:11:49.956Z,86.65
2019-05-21T08:14:18.841Z,86.12
2019-05-21T08:16:47.501Z,85.67
2019-05-21T08:19:16.523Z,85.55
2019-05-21T08:21:45.137Z,84.50
2019-05-21T08:24:13.759Z,84.58
2019-05-21T08:26:42.644Z,84.14
2019-05-21T08:29:11.346Z,84.04
2019-05-21T08:31:40.285Z,82.37
2019-05-21T08:34:08.942Z,82.83
2019-05-21T08:36:37.861Z,82.35
2019-05-21T08:39:07.647Z,82.78
2019-05-21T08:41:36.653Z,83.96
2019-05-21T08:44:05.386Z,81.82
2019-05-21T08:46:34.940Z,81.53
2019-05-21T08:49:03.839Z,79.09
2019-05-21T08:51:32.557Z,76.81
2019-05-21T08:54:01.519Z,77.44
2019-05-21T08:56:30.152Z,78.51
2019-05-21T08:58:59.104Z,80.59
2019-05-21T09:01:28.086Z,80.48
2019-05-21T09:03:57.084Z,80.14
2019-05-21T09:06:26.063Z,80.91
2019-05-21T09:08:55.293Z,80.50
2019-05-21T09:11:24.263Z,81.05
2019-05-21T09:13:53.261Z,81.62
2019-05-21T09:16:21.913Z,82.10
2019-05-21T09:18:50.859Z,85.16
2019-05-21T09:21:20.143Z,85.02
2019-05-21T09:23:48.811Z,85.17
2019-05-21T09:26:18.099Z,84.60
2019-05-21T09:28:46.947Z,85.55
2019-05-21T09:31:15.914Z,84.26
2019-05-21T09:33:44.803Z,86.09
2019-05-21T09:36:13.997Z,87.21
2019-05-21T09:38:43.338Z,86.39
2019-05-21T09:41:12.195Z,86.71
2019-05-21T09:43:41.186Z,85.42
2019-05-21T09:46:09.827Z,87.28
2019-05-21T09:48:38.764Z,87.48
2019-05-21T09:51:07.768Z,86.93
2019-05-21T09:53:37.363Z,88.07
2019-05-21T09:56:24.179Z,88.65
2019-05-21T09:58:54.717Z,87.94
2019-05-21T10:01:29.847Z,87.63
2019-05-21T10:03:59.114Z,88.13
2019-05-21T10:06:28.147Z,89.02
2019-05-21T10:08:56.775Z,88.50
2019-05-21T10:11:25.431Z,88.47
2019-05-21T10:13:54.430Z,88.20
2019-05-21T10:16:23.728Z,88.44
2019-05-21T10:18:52.437Z,89.04
2019-05-21T10:21:21.572Z,88.92
2019-05-21T10:23:50.484Z,87.79
2019-05-21T10:26:19.780Z,87.80
2019-05-21T10:28:49.104Z,86.82
2019-05-21T10:31:18.073Z,86.89
2019-05-21T10:33:47.597Z,86.46
2019-05-21T10:36:16.990Z,85.01
2019-05-21T10:38:45.977Z,85.36
2019-05-21T10:41:15.071Z,85.53
2019-05-21T10:43:43.984Z,85.66
2019-05-21T10:46:12.695Z,87.08
2019-05-21T10:48:41.647Z,86.21
2019-05-21T10:51:10.807Z,85.49
2019-05-21T10:53:40.041Z,85.07
2019-05-21T10:56:08.747Z,85.36
2019-05-21T10:58:37.619Z,84.52
2019-05-21T11:01:16.332Z,86.54
2019-05-21T11:04:04.693Z,83.62
2019-05-21T11:06:33.805Z,81.29
2019-05-21T11:09:02.533Z,81.92
2019-05-21T11:11:31.166Z,82.54
2019-05-21T11:14:00.240Z,80.19
2019-05-21T11:16:29.453Z,79.48
2019-05-21T11:18:58.450Z,79.40
2019-05-21T11:21:27.119Z,79.61
2019-05-21T11:23:56.276Z,80.63
2019-05-21T11:26:25.089Z,81.90
2019-05-21T11:28:54.016Z,80.62
2019-05-21T11:31:22.903Z,80.76
2019-05-21T11:33:51.906Z,80.06
2019-05-21T11:36:20.900Z,80.44
2019-05-21T11:38:49.796Z,80.45
2019-05-21T11:41:19.088Z,80.84
2019-05-21T11:43:48.085Z,80.54
2019-05-21T11:46:16.738Z,82.24
2019-05-21T11:48:45.672Z,81.29
2019-05-21T11:51:14.392Z,81.83
2019-05-21T11:53:43.342Z,83.09
2019-05-21T11:56:12.358Z,82.99
2019-05-21T11:58:40.999Z,84.96
2019-05-21T12:01:10.221Z,85.72
2019-05-21T12:03:39.520Z,84.37
2019-05-21T12:06:08.820Z,84.79
2019-05-21T12:08:38.019Z,84.28
2019-05-21T12:11:06.902Z,85.02
2019-05-21T12:13:35.636Z,84.25
2019-05-21T12:16:04.692Z,84.16
2019-05-21T12:18:33.588Z,84.14
2019-05-21T12:21:02.296Z,83.56
2019-05-21T12:23:31.879Z,82.17
2019-05-21T12:26:01.227Z,83.29
2019-05-21T12:28:30.479Z,84.18
2019-05-21T12:30:59.681Z,82.96
2019-05-21T12:33:28.571Z,83.56
2019-05-21T12:35:57.872Z,85.21
2019-05-21T12:38:26.512Z,84.87
2019-05-21T12:40:55.147Z,85.26
2019-05-21T12:43:24.142Z,86.01
2019-05-21T12:45:52.846Z,86.08
2019-05-21T12:48:21.877Z,84.31
2019-05-21T12:50:50.807Z,84.37
2019-05-21T12:53:19.715Z,83.39
2019-05-21T12:55:48.355Z,84.24
2019-05-21T12:58:17.002Z,86.31
2019-05-21T13:00:45.719Z,85.97
2019-05-21T13:03:14.652Z,86.49
2019-05-21T13:05:43.313Z,87.40
2019-05-21T13:08:12.786Z,86.94
2019-05-21T13:10:41.738Z,86.51
2019-05-21T13:13:10.372Z,86.84
2019-05-21T13:15:39.330Z,87.01
2019-05-21T13:18:07.937Z,87.30
2019-05-21T13:20:36.602Z,87.85
2019-05-21T13:23:05.781Z,88.07
2019-05-21T13:25:35.254Z,88.32
2019-05-21T13:28:03.923Z,88.86
2019-05-21T13:30:32.600Z,87.11
2019-05-21T13:33:01.556Z,86.08
2019-05-21T13:35:30.550Z,85.40
2019-05-21T13:37:59.542Z,85.89
2019-05-21T13:40:29.158Z,86.45
2019-05-21T13:42:58.356Z,86.79
2019-05-21T13:45:27.088Z,87.21
2019-05-21T13:47:56.082Z,86.70
2019-05-21T13:50:24.634Z,86.18
2019-05-21T13:52:53.285Z,85.40
2019-05-21T13:55:22.012Z,85.39
2019-05-21T13:57:50.913Z,85.68
2019-05-21T14:00:26.528Z,86.11
2019-05-21T14:02:55.439Z,85.56
2019-05-21T14:05:24.420Z,84.88
2019-05-21T14:07:53.510Z,85.75
2019-05-21T14:10:22.235Z,86.10
2019-05-21T14:12:51.192Z,86.27
2019-05-21T14:15:19.927Z,87.00
2019-05-21T14:17:48.871Z,87.15
2019-05-21T14:20:18.069Z,87.29
2019-05-21T14:22:46.739Z,87.93
2019-05-21T14:25:15.749Z,89.05
2019-05-21T14:27:45.382Z,89.11
2019-05-21T14:30:14.757Z,88.50
2019-05-21T14:32:43.753Z,88.26
2019-05-21T14:35:13.061Z,89.55
2019-05-21T14:37:42.252Z,88.73
2019-05-21T14:40:11.538Z,88.47
2019-05-21T14:42:58.517Z,88.58
2019-05-21T14:45:14.457Z,88.78
2019-05-21T14:47:43.118Z,88.62
2019-05-21T14:50:12.139Z,88.66
2019-05-21T14:52:41.268Z,88.42
2019-05-21T14:55:10.064Z,88.41
2019-05-21T14:57:39.116Z,88.40
2019-05-21T15:00:19.142Z,87.86
2019-05-21T15:02:48.453Z,87.25
2019-05-21T15:05:17.174Z,87.82
2019-05-21T15:07:49.697Z,87.96
2019-05-21T15:10:16.929Z,86.56
2019-05-21T15:12:45.545Z,86.79
2019-05-21T15:15:14.574Z,86.92
2019-05-21T15:17:43.209Z,86.38
2019-05-21T15:20:21.128Z,86.76
2019-05-21T15:22:50.060Z,87.12
2019-05-21T15:25:19.039Z,87.79
2019-05-21T15:27:48.032Z,88.12
2019-05-21T15:30:19.901Z,87.99
2019-05-21T15:32:48.508Z,88.53
2019-05-21T15:35:17.198Z,88.05
2019-05-21T15:37:46.086Z,87.65
2019-05-21T15:40:15.163Z,87.23
2019-05-21T15:42:44.153Z,87.20
2019-05-21T15:45:12.965Z,87.73
2019-05-21T15:47:41.632Z,87.86
2019-05-21T15:50:10.319Z,85.49
2019-05-21T15:52:39.318Z,85.59
2019-05-21T15:55:08.266Z,85.65
2019-05-21T15:57:37.287Z,85.73
2019-05-21T16:00:07.118Z,86.20
2019-05-21T16:02:36.436Z,86.47
2019-05-21T16:05:05.704Z,86.87
2019-05-21T16:07:34.340Z,86.18
2019-05-21T16:10:02.986Z,85.47
2019-05-21T16:12:31.633Z,85.73
2019-05-21T16:15:00.856Z,86.68
2019-05-21T16:17:29.501Z,87.65
2019-05-21T16:19:58.195Z,87.96
2019-05-21T16:22:27.430Z,87.31
2019-05-21T16:24:56.425Z,87.88
2019-05-21T16:27:25.418Z,87.82
2019-05-21T16:29:54.717Z,88.55
2019-05-21T16:32:23.656Z,89.06
2019-05-21T16:34:52.522Z,88.92
2019-05-21T16:37:24.162Z,88.63
2019-05-21T16:39:53.457Z,88.71
2019-05-21T16:42:22.388Z,89.08
2019-05-21T16:44:51.061Z,88.62
2019-05-21T16:47:19.900Z,89.07
2019-05-21T16:49:48.809Z,89.58
2019-05-21T16:52:17.711Z,89.90
2019-05-21T16:54:46.607Z,90.33
2019-05-21T16:57:15.792Z,90.34
2019-05-21T16:59:44.520Z,90.81
2019-05-21T17:02:13.482Z,90.88
2019-05-21T17:04:42.680Z,91.17
2019-05-21T17:07:11.724Z,91.62
2019-05-21T17:09:40.670Z,91.52
2019-05-21T17:12:09.465Z,90.48
2019-05-21T17:14:38.450Z,89.95
2019-05-21T17:17:07.454Z,89.94
2019-05-21T17:19:36.498Z,89.90
2019-05-21T17:22:05.534Z,89.84
2019-05-21T17:24:34.946Z,89.30
2019-05-21T17:27:04.406Z,89.54
2019-05-21T17:29:34.055Z,89.84
2019-05-21T17:32:06.369Z,89.36
2019-05-21T17:34:33.483Z,89.76
2019-05-21T17:37:04.227Z,89.35
2019-05-21T17:39:32.923Z,89.45
2019-05-21T17:42:14.724Z,89.67
2019-05-21T17:44:33.064Z,89.67
2019-05-21T17:47:01.744Z,89.33
2019-05-21T17:49:30.386Z,89.15
2019-05-21T17:51:59.099Z,89.62
2019-05-21T17:54:28.127Z,89.95
2019-05-21T17:56:56.776Z,90.04
2019-05-21T17:59:25.508Z,90.26
2019-05-21T18:01:54.756Z,90.38
2019-05-21T18:04:23.855Z,89.85
2019-05-21T18:06:52.608Z,89.57
2019-05-21T18:09:22.259Z,89.35
2019-05-21T18:11:51.647Z,88.64
2019-05-21T18:14:20.671Z,89.47
2019-05-21T18:16:49.954Z,89.46
2019-05-21T18:19:20.175Z,89.44
2019-05-21T18:21:50.237Z,89.69
2019-05-21T18:24:20.242Z,89.41
2019-05-21T18:26:49.723Z,89.51
2019-05-21T18:29:19.015Z,89.47
2019-05-21T18:31:48.111Z,90.06
2019-05-21T18:34:17.006Z,90.84
2019-05-21T18:36:46.030Z,91.02
2019-05-21T18:39:15.400Z,90.96
2019-05-21T18:41:44.114Z,90.82
2019-05-21T18:44:12.739Z,91.04
2019-05-21T18:46:41.696Z,91.18
2019-05-21T18:49:10.420Z,91.18
2019-05-21T18:51:39.446Z,91.09
2019-05-21T18:54:08.130Z,91.40
2019-05-21T18:56:37.027Z,90.27
2019-05-21T18:59:06.019Z,89.87
2019-05-21T19:01:38.171Z,89.55
2019-05-21T19:04:05.440Z,89.38
2019-05-21T19:06:34.743Z,89.55
2019-05-21T19:09:04.640Z,89.91
2019-05-21T19:11:33.299Z,89.96
2019-05-21T19:14:02.082Z,90.99
2019-05-21T19:16:30.730Z,91.21
2019-05-21T19:19:00.131Z,90.63
2019-05-21T19:21:29.035Z,90.39
2019-05-21T19:23:58.315Z,90.51
2019-05-21T19:26:26.948Z,89.94
2019-05-21T19:28:55.575Z,90.15
2019-05-21T19:31:24.639Z,89.91
2019-05-21T19:33:53.574Z,90.38
2019-05-21T19:36:22.729Z,90.39
2019-05-21T19:38:51.396Z,89.96
2019-05-21T19:41:20.361Z,90.21
2019-05-21T19:43:49.942Z,90.63
2019-05-21T19:46:18.670Z,90.11
2019-05-21T19:48:47.318Z,90.07
2019-05-21T19:51:16.556Z,89.71
2019-05-21T19:53:45.525Z,90.17
2019-05-21T19:56:14.440Z,90.02
2019-05-21T19:58:43.067Z,90.03
2019-05-21T20:01:12.344Z,90.59
2019-05-21T20:03:41.573Z,90.55
2019-05-21T20:06:10.188Z,90.81
2019-05-21T20:08:39.700Z,90.81
2019-05-21T20:11:09.198Z,91.19
2019-05-21T20:13:37.839Z,91.46
2019-05-21T20:16:06.578Z,91.55
2019-05-21T20:18:35.561Z,91.74
2019-05-21T20:21:06.826Z,92.61
2019-05-21T20:23:36.006Z,92.46
2019-05-21T20:26:04.906Z,93.10
2019-05-21T20:28:34.574Z,93.43
2019-05-21T20:31:04.025Z,94.09
2019-05-21T20:33:34.654Z,93.78
2019-05-21T20:36:03.887Z,93.50
2019-05-21T20:38:33.252Z,93.37
2019-05-21T20:41:02.039Z,93.49
2019-05-21T20:43:31.251Z,93.53
2019-05-21T20:46:00.295Z,93.48
2019-05-21T20:48:32.048Z,93.63
2019-05-21T20:51:02.411Z,93.84
2019-05-21T20:53:31.720Z,93.81
2019-05-21T20:56:00.813Z,93.98
2019-05-21T20:58:29.874Z,94.00
2019-05-21T21:01:01.178Z,94.39
2019-05-21T21:03:30.459Z,94.26
2019-05-21T21:05:59.244Z,93.92
2019-05-21T21:08:28.340Z,94.30
2019-05-21T21:10:57.127Z,94.46
2019-05-21T21:13:26.942Z,94.68
2019-05-21T21:15:55.576Z,95.04
2019-05-21T21:18:25.083Z,94.90
2019-05-21T21:20:54.027Z,94.74
2019-05-21T21:23:24.732Z,94.44
2019-05-21T21:25:53.866Z,94.23
2019-05-21T21:28:23.261Z,94.25
2019-05-21T21:30:51.888Z,94.74
2019-05-21T21:33:21.453Z,95.14
2019-05-21T21:35:50.473Z,95.66
2019-05-21T21:38:23.227Z,96.01
2019-05-21T21:40:51.874Z,95.93
2019-05-21T21:43:20.532Z,96.46
2019-05-21T21:45:49.338Z,96.64
2019-05-21T21:48:18.696Z,96.85
2019-05-21T21:50:47.688Z,96.80
2019-05-21T21:53:17.104Z,97.24
2019-05-21T21:55:46.077Z,98.05
2019-05-21T21:58:15.417Z,98.68
2019-05-21T22:01:19.991Z,99.03
2019-05-21T22:03:49.279Z,99.40
2019-05-21T22:06:19.536Z,99.64
2019-05-21T22:08:48.522Z,100.00
2019-05-21T22:11:18.309Z,100.00
2019-05-21T22:13:47.428Z,100.00
2019-05-21T22:16:17.065Z,100.00
2019-05-21T22:18:45.810Z,100.00
2019-05-21T22:21:14.613Z,100.00
2019-05-21T22:23:43.329Z,100.00
2019-05-21T22:26:11.989Z,100.00
2019-05-21T22:28:40.977Z,100.00
2019-05-21T22:31:10.301Z,100.00
2019-05-21T22:33:39.490Z,99.89
2019-05-21T22:36:08.690Z,99.67
2019-05-21T22:38:37.682Z,99.44
2019-05-21T22:41:06.788Z,99.47
2019-05-21T22:43:35.822Z,99.46
2019-05-21T22:46:05.286Z,99.96
2019-05-21T22:48:34.891Z,100.00
2019-05-21T22:51:03.606Z,99.89
2019-05-21T22:53:32.251Z,99.88
2019-05-21T22:56:00.990Z,99.78
2019-05-21T22:58:30.256Z,99.85
2019-05-21T23:01:00.474Z,99.96
2019-05-21T23:03:30.089Z,99.87
2019-05-21T23:05:58.707Z,100.00
2019-05-21T23:08:28.383Z,100.00
2019-05-21T23:10:57.101Z,100.00
2019-05-21T23:13:26.061Z,100.00
2019-05-21T23:15:55.256Z,100.00
2019-05-21T23:18:24.542Z,100.00
2019-05-21T23:20:53.596Z,100.00
2019-05-21T23:23:24.295Z,100.00
2019-05-21T23:25:54.640Z,100.00
2019-05-21T23:41:59.591Z,100.00
2019-05-21T23:44:55.873Z,100.00
2019-05-21T23:47:24.904Z,100.00
2019-05-21T23:49:54.677Z,100.00
2019-05-21T23:52:24.292Z,100.00
2019-05-21T23:54:53.223Z,100.00
2019-05-21T23:57:30.311Z,100.00
2019-05-21T23:59:59.047Z,100.00
